createdAt,value
2022-10-18T00:01:09.707Z,63.09
2022-10-18T00:06:10.898Z,61.59
2022-10-18T00:08:38.936Z,61.55
2022-10-18T00:11:07.033Z,61.33
2022-10-18T00:13:34.880Z,62.28
2022-10-18T00:16:04.990Z,62.46
2022-10-18T00:18:33.371Z,62.09
2022-10-18T00:21:05.637Z,62.01
2022-10-18T00:23:34.117Z,62.17
2022-10-18T00:26:04.953Z,62.50
2022-10-18T00:28:33.668Z,61.96
2022-10-18T00:31:28.879Z,62.32
2022-10-18T00:34:00.246Z,62.58
2022-10-18T00:36:29.778Z,61.37
2022-10-18T00:38:57.971Z,61.35
2022-10-18T00:41:29.625Z,61.85
2022-10-18T00:44:12.807Z,62.46
2022-10-18T00:46:45.653Z,63.14
2022-10-18T00:49:22.129Z,63.27
2022-10-18T00:52:05.858Z,63.33
2022-10-18T00:54:35.139Z,63.34
2022-10-18T00:57:02.931Z,63.25
2022-10-18T00:59:30.758Z,63.21
2022-10-18T01:01:58.538Z,62.36
2022-10-18T01:04:26.384Z,62.41
2022-10-18T01:07:34.913Z,61.91
2022-10-18T01:10:29.508Z,61.85
2022-10-18T01:13:43.759Z,61.67
2022-10-18T01:16:26.267Z,62.33
2022-10-18T01:19:03.786Z,61.65
2022-10-18T01:21:44.587Z,61.60
2022-10-18T01:24:31.502Z,61.66
2022-10-18T01:27:41.492Z,61.30
2022-10-18T01:30:47.863Z,61.61
2022-10-18T01:33:34.364Z,61.85
2022-10-18T01:36:23.209Z,62.29
2022-10-18T01:38:52.556Z,61.73
2022-10-18T01:41:21.716Z,61.88
2022-10-18T01:43:51.324Z,61.95
2022-10-18T01:46:22.058Z,61.84
2022-10-18T01:48:50.024Z,61.81
2022-10-18T01:51:28.643Z,61.83
2022-10-18T01:53:56.509Z,62.25
2022-10-18T01:56:36.717Z,62.03
2022-10-18T01:59:43.545Z,61.73
2022-10-18T02:02:55.340Z,61.71
2022-10-18T02:05:33.378Z,62.31
2022-10-18T02:08:28.606Z,62.54
2022-10-18T02:11:05.867Z,62.46
2022-10-18T02:13:43.736Z,62.11
2022-10-18T02:16:16.560Z,62.29
2022-10-18T02:18:50.526Z,61.86
2022-10-18T02:21:19.132Z,61.98
2022-10-18T02:23:46.973Z,61.66
2022-10-18T02:26:15.454Z,62.63
2022-10-18T02:28:43.169Z,62.49
2022-10-18T02:31:35.903Z,62.91
2022-10-18T02:34:17.557Z,62.48
2022-10-18T02:36:48.739Z,61.81
2022-10-18T02:39:23.883Z,62.06
2022-10-18T02:41:51.597Z,62.06
2022-10-18T02:44:19.359Z,62.20
2022-10-18T02:46:47.142Z,62.38
2022-10-18T02:49:14.987Z,62.28
2022-10-18T02:51:42.713Z,61.63
2022-10-18T02:54:10.513Z,62.46
2022-10-18T02:56:38.209Z,62.35
2022-10-18T02:59:07.509Z,61.91
2022-10-18T03:01:36.718Z,61.69
2022-10-18T03:04:04.928Z,61.79
2022-10-18T03:06:33.224Z,61.64
2022-10-18T03:09:04.876Z,61.09
2022-10-18T03:11:33.154Z,60.94
2022-10-18T03:14:01.122Z,61.31
2022-10-18T03:16:29.090Z,61.26
2022-10-18T03:18:56.800Z,60.72
2022-10-18T03:21:24.511Z,60.95
2022-10-18T03:23:52.240Z,61.14
2022-10-18T03:26:21.681Z,61.18
2022-10-18T03:28:49.452Z,61.09
2022-10-18T03:31:17.512Z,61.36
2022-10-18T03:33:45.997Z,61.69
2022-10-18T03:36:13.896Z,61.74
2022-10-18T03:38:42.439Z,61.71
2022-10-18T03:41:10.307Z,61.50
2022-10-18T03:43:38.171Z,61.23
2022-10-18T03:46:06.139Z,61.05
2022-10-18T03:48:33.905Z,60.89
2022-10-18T03:51:01.671Z,61.19
2022-10-18T03:53:29.531Z,61.09
2022-10-18T03:55:57.332Z,61.81
2022-10-18T03:58:25.181Z,60.92
2022-10-18T04:00:53.642Z,61.16
2022-10-18T04:03:22.132Z,60.96
2022-10-18T04:05:50.023Z,60.68
2022-10-18T04:08:18.263Z,60.40
2022-10-18T04:10:46.137Z,60.50
2022-10-18T04:13:14.200Z,60.93
2022-10-18T04:15:42.061Z,60.65
2022-10-18T04:18:09.828Z,60.86
2022-10-18T04:20:37.693Z,61.34
2022-10-18T04:23:05.493Z,61.47
2022-10-18T04:25:33.203Z,60.94
2022-10-18T04:28:01.000Z,60.94
2022-10-18T04:30:28.851Z,61.05
2022-10-18T04:32:56.612Z,61.25
2022-10-18T04:35:26.183Z,61.52
2022-10-18T04:37:55.004Z,62.10
2022-10-18T04:40:22.667Z,61.92
2022-10-18T04:42:50.530Z,61.67
2022-10-18T04:45:18.294Z,60.94
2022-10-18T04:47:46.037Z,61.22
2022-10-18T04:50:13.823Z,60.83
2022-10-18T04:52:41.616Z,61.33
2022-10-18T04:55:09.653Z,61.60
2022-10-18T04:57:37.418Z,61.88
2022-10-18T05:00:06.309Z,61.52
2022-10-18T05:02:34.338Z,61.75
2022-10-18T05:05:02.245Z,61.30
2022-10-18T05:07:30.014Z,61.01
2022-10-18T05:09:57.770Z,60.84
2022-10-18T05:12:25.546Z,60.78
2022-10-18T05:14:53.344Z,61.49
2022-10-18T05:17:22.289Z,61.43
2022-10-18T05:19:50.053Z,60.61
2022-10-18T05:22:17.817Z,60.86
2022-10-18T05:24:45.581Z,60.71
2022-10-18T05:27:13.344Z,60.66
2022-10-18T05:29:41.064Z,60.93
2022-10-18T05:32:08.776Z,60.32
2022-10-18T05:34:36.632Z,60.20
2022-10-18T05:37:04.504Z,60.47
2022-10-18T05:39:32.264Z,60.01
2022-10-18T05:42:00.131Z,59.86
2022-10-18T05:44:27.872Z,59.62
2022-10-18T05:46:55.653Z,58.29
2022-10-18T05:49:23.416Z,58.50
2022-10-18T05:51:51.284Z,60.10
2022-10-18T05:54:19.150Z,61.61
2022-10-18T05:56:47.020Z,65.53
2022-10-18T05:59:14.777Z,62.39
2022-10-18T06:01:42.787Z,60.83
2022-10-18T06:04:10.816Z,60.68
2022-10-18T06:06:39.095Z,60.50
2022-10-18T06:09:07.695Z,60.57
2022-10-18T06:11:36.358Z,59.14
2022-10-18T06:14:05.351Z,59.10
2022-10-18T06:16:33.250Z,61.14
2022-10-18T06:19:01.084Z,62.65
2022-10-18T06:21:28.900Z,60.87
2022-10-18T06:23:58.477Z,59.54
2022-10-18T06:26:27.553Z,60.75
2022-10-18T06:28:55.439Z,62.84
2022-10-18T06:31:23.541Z,62.60
2022-10-18T06:33:51.449Z,59.83
2022-10-18T06:36:22.239Z,57.31
2022-10-18T06:38:50.570Z,57.82
2022-10-18T06:41:19.757Z,56.24
2022-10-18T06:43:51.346Z,59.66
2022-10-18T06:46:19.207Z,57.64
2022-10-18T06:48:47.254Z,60.20
2022-10-18T06:51:15.627Z,59.45
2022-10-18T06:53:59.306Z,57.13
2022-10-18T06:56:31.427Z,54.92
2022-10-18T07:01:32.064Z,53.37
2022-10-18T07:03:59.938Z,53.60
2022-10-18T07:06:27.803Z,54.59
2022-10-18T07:08:56.422Z,52.58
2022-10-18T07:11:26.056Z,52.33
2022-10-18T07:13:55.337Z,54.86
2022-10-18T07:16:23.263Z,54.63
2022-10-18T07:18:51.536Z,53.73
2022-10-18T07:21:22.102Z,56.00
2022-10-18T07:23:50.261Z,55.07
2022-10-18T07:26:33.217Z,58.30
2022-10-18T07:29:06.810Z,59.27
2022-10-18T07:31:35.239Z,59.13
2022-10-18T07:34:06.583Z,59.77
2022-10-18T07:36:34.651Z,58.18
2022-10-18T07:39:02.517Z,59.58
2022-10-18T07:41:33.364Z,57.63
2022-10-18T07:44:01.323Z,57.33
2022-10-18T07:46:29.289Z,57.82
2022-10-18T07:48:59.716Z,61.08
2022-10-18T07:51:28.143Z,60.30
2022-10-18T07:53:55.873Z,58.51
2022-10-18T07:56:23.619Z,56.70
2022-10-18T07:58:53.189Z,58.53
2022-10-18T08:01:22.662Z,59.65
2022-10-18T08:03:50.753Z,59.08
2022-10-18T08:06:19.698Z,57.81
2022-10-18T08:08:47.867Z,56.78
2022-10-18T08:11:22.155Z,58.26
2022-10-18T08:13:50.352Z,59.68
2022-10-18T08:16:20.862Z,60.00
2022-10-18T08:18:48.850Z,59.91
2022-10-18T08:21:17.204Z,59.09
2022-10-18T08:23:44.994Z,57.45
2022-10-18T08:26:20.678Z,58.87
2022-10-18T08:28:54.048Z,57.00
2022-10-18T08:31:31.555Z,58.70
2022-10-18T08:34:00.107Z,58.66
2022-10-18T08:36:27.974Z,58.85
2022-10-18T08:38:55.742Z,58.21
2022-10-18T08:41:48.179Z,59.03
2022-10-18T08:44:22.494Z,58.63
2022-10-18T08:46:58.862Z,57.99
2022-10-18T08:49:46.247Z,58.04
2022-10-18T08:52:32.624Z,57.30
2022-10-18T08:55:10.245Z,58.06
2022-10-18T08:57:38.042Z,58.57
2022-10-18T09:00:20.142Z,57.87
2022-10-18T09:03:15.957Z,57.30
2022-10-18T09:05:53.452Z,57.14
2022-10-18T09:08:35.590Z,57.16
2022-10-18T09:11:47.160Z,56.79
2022-10-18T09:14:58.838Z,56.16
2022-10-18T09:17:57.525Z,55.93
2022-10-18T09:20:34.046Z,55.40
2022-10-18T09:23:23.131Z,54.88
2022-10-18T09:26:00.955Z,56.75
2022-10-18T09:28:42.300Z,56.77
2022-10-18T09:31:42.868Z,56.81
2022-10-18T09:34:32.199Z,55.26
2022-10-18T09:36:59.957Z,54.60
2022-10-18T09:39:36.982Z,56.36
2022-10-18T09:42:16.565Z,55.18
2022-10-18T09:44:49.455Z,55.10
2022-10-18T09:47:24.905Z,56.44
2022-10-18T09:50:01.028Z,56.42
2022-10-18T09:52:35.723Z,55.52
2022-10-18T09:55:09.078Z,56.13
2022-10-18T09:57:42.979Z,56.13
2022-10-18T10:00:21.384Z,55.32
2022-10-18T10:02:49.163Z,56.18
2022-10-18T10:05:17.035Z,55.76
2022-10-18T10:07:49.896Z,55.19
2022-10-18T10:10:23.931Z,56.08
2022-10-18T10:13:17.681Z,55.35
2022-10-18T10:15:56.676Z,54.49
2022-10-18T10:18:34.486Z,55.06
2022-10-18T10:21:13.633Z,53.78
2022-10-18T10:23:46.912Z,53.54
2022-10-18T10:26:34.323Z,53.84
2022-10-18T10:29:02.368Z,53.94
2022-10-18T10:31:34.419Z,53.81
2022-10-18T10:34:06.593Z,53.98
2022-10-18T10:36:35.199Z,53.47
2022-10-18T10:39:09.684Z,54.12
2022-10-18T10:41:37.505Z,53.39
2022-10-18T10:44:05.582Z,52.95
2022-10-18T10:46:35.525Z,53.16
2022-10-18T10:49:34.927Z,53.60
2022-10-18T10:52:08.434Z,53.43
2022-10-18T10:54:46.479Z,53.17
2022-10-18T10:57:22.718Z,53.05
2022-10-18T10:59:59.758Z,52.43
2022-10-18T11:02:35.022Z,52.63
2022-10-18T11:05:23.805Z,50.99
2022-10-18T11:07:54.790Z,51.24
2022-10-18T11:10:28.533Z,52.40
2022-10-18T11:13:25.405Z,51.47
2022-10-18T11:15:57.777Z,52.17
2022-10-18T11:18:33.332Z,52.47
2022-10-18T11:21:27.521Z,51.67
2022-10-18T11:23:57.225Z,50.93
2022-10-18T11:26:43.693Z,50.67
2022-10-18T11:29:26.273Z,51.53
2022-10-18T11:32:19.588Z,50.78
2022-10-18T11:35:22.613Z,50.87
2022-10-18T11:38:05.565Z,51.56
2022-10-18T11:40:59.737Z,51.28
2022-10-18T11:44:01.149Z,51.00
2022-10-18T11:46:47.738Z,51.11
2022-10-18T11:49:43.971Z,51.03
2022-10-18T11:53:06.108Z,50.65
2022-10-18T11:55:57.833Z,50.59
2022-10-18T11:59:09.015Z,50.33
2022-10-18T12:01:49.986Z,50.22
2022-10-18T12:04:19.818Z,50.20
2022-10-18T12:06:49.591Z,50.66
2022-10-18T12:09:30.927Z,49.83
2022-10-18T12:12:03.366Z,50.26
2022-10-18T12:14:35.940Z,50.52
2022-10-18T12:17:39.674Z,50.29
2022-10-18T12:19:56.042Z,50.03
2022-10-18T12:22:36.968Z,50.77
2022-10-18T12:25:08.544Z,50.71
2022-10-18T12:28:03.701Z,50.25
2022-10-18T12:30:52.319Z,49.52
2022-10-18T12:33:28.396Z,50.35
2022-10-18T12:36:21.644Z,50.51
2022-10-18T12:39:04.357Z,50.58
2022-10-18T12:41:34.164Z,49.57
2022-10-18T12:44:23.847Z,50.36
2022-10-18T12:46:54.911Z,50.54
2022-10-18T12:49:33.506Z,49.96
2022-10-18T12:52:04.080Z,50.05
2022-10-18T12:54:37.391Z,49.78
2022-10-18T12:57:11.536Z,50.23
2022-10-18T12:59:39.514Z,50.35
2022-10-18T13:02:07.833Z,49.69
2022-10-18T13:04:35.579Z,49.73
2022-10-18T13:07:08.130Z,50.26
2022-10-18T13:09:44.496Z,50.05
2022-10-18T13:12:13.092Z,50.19
2022-10-18T13:15:25.997Z,50.08
2022-10-18T13:18:10.287Z,49.37
2022-10-18T13:20:47.242Z,50.49
2022-10-18T13:24:02.706Z,50.42
2022-10-18T13:26:41.938Z,50.81
2022-10-18T13:29:40.939Z,50.54
2022-10-18T13:32:57.450Z,51.25
2022-10-18T13:35:55.372Z,51.18
2022-10-18T13:38:39.092Z,51.41
2022-10-18T13:41:16.624Z,51.59
2022-10-18T13:43:54.266Z,52.00
2022-10-18T13:46:39.175Z,52.22
2022-10-18T13:49:38.507Z,52.24
2022-10-18T13:52:32.365Z,52.00
2022-10-18T13:55:49.802Z,52.88
2022-10-18T13:58:49.182Z,52.70
2022-10-18T14:01:39.060Z,53.30
2022-10-18T14:04:43.105Z,53.24
2022-10-18T14:07:10.976Z,53.31
2022-10-18T14:09:54.995Z,53.29
2022-10-18T14:12:41.418Z,53.68
2022-10-18T14:15:17.596Z,54.88
2022-10-18T14:17:53.740Z,54.72
2022-10-18T14:21:01.336Z,55.05
2022-10-18T14:23:33.710Z,55.42
2022-10-18T14:26:18.831Z,55.66
2022-10-18T14:29:00.766Z,56.16
2022-10-18T14:31:28.914Z,56.69
2022-10-18T14:33:58.734Z,57.21
2022-10-18T14:36:37.769Z,56.98
2022-10-18T14:39:06.374Z,57.35
2022-10-18T14:41:38.702Z,57.84
2022-10-18T14:44:31.183Z,58.47
2022-10-18T14:47:12.400Z,58.99
2022-10-18T14:49:44.970Z,58.50
2022-10-18T14:52:25.302Z,58.55
2022-10-18T14:54:58.685Z,58.64
2022-10-18T14:57:35.374Z,59.05
2022-10-18T15:02:56.999Z,59.51
2022-10-18T15:05:25.180Z,59.81
2022-10-18T15:07:53.066Z,59.98
2022-10-18T15:10:25.694Z,60.27
2022-10-18T15:13:10.134Z,60.47
2022-10-18T15:15:38.654Z,61.05
2022-10-18T15:18:06.723Z,61.09
2022-10-18T15:20:39.602Z,61.35
2022-10-18T15:23:31.539Z,61.43
2022-10-18T15:26:08.338Z,61.56
2022-10-18T15:28:49.569Z,61.81
2022-10-18T15:31:34.454Z,63.78
2022-10-18T15:34:21.879Z,69.94
2022-10-18T15:36:51.078Z,70.62
2022-10-18T15:39:20.707Z,68.32
2022-10-18T15:42:02.087Z,66.76
2022-10-18T15:44:34.906Z,64.75
2022-10-18T15:47:11.942Z,62.97
2022-10-18T15:49:51.182Z,61.50
2022-10-18T15:52:21.690Z,60.72
2022-10-18T15:57:23.428Z,56.91
2022-10-18T15:59:56.072Z,57.70
2022-10-18T16:02:23.906Z,58.43
2022-10-18T16:04:51.616Z,60.41
2022-10-18T16:07:19.435Z,60.29
2022-10-18T16:09:47.195Z,60.43
2022-10-18T16:12:14.960Z,60.57
2022-10-18T16:14:42.629Z,60.98
2022-10-18T16:17:16.937Z,60.86
2022-10-18T16:19:44.836Z,63.37
2022-10-18T16:24:41.662Z,65.02
2022-10-18T16:27:09.935Z,63.69
2022-10-18T16:29:37.905Z,62.65
2022-10-18T16:32:05.873Z,61.17
2022-10-18T16:34:33.740Z,58.86
2022-10-18T16:37:01.607Z,56.63
2022-10-18T16:39:34.921Z,57.20
2022-10-18T16:42:02.969Z,57.59
2022-10-18T16:44:31.039Z,58.23
2022-10-18T16:47:01.059Z,59.38
2022-10-18T16:49:29.125Z,59.45
2022-10-18T16:51:57.200Z,60.03
2022-10-18T16:54:25.191Z,59.86
2022-10-18T16:56:53.239Z,60.46
2022-10-18T16:59:29.569Z,60.84
2022-10-18T17:01:57.874Z,60.99
2022-10-18T17:04:26.664Z,63.77
2022-10-18T17:06:54.738Z,65.44
2022-10-18T17:09:22.909Z,60.89
2022-10-18T17:11:50.843Z,60.05
2022-10-18T17:14:18.747Z,57.08
2022-10-18T17:16:50.145Z,57.93
2022-10-18T17:19:22.665Z,57.91
2022-10-18T17:21:50.635Z,57.88
2022-10-18T17:24:18.513Z,58.77
2022-10-18T17:26:46.468Z,59.34
2022-10-18T17:29:14.380Z,58.98
2022-10-18T17:31:42.305Z,59.63
2022-10-18T17:34:10.170Z,61.20
2022-10-18T17:36:38.343Z,63.05
2022-10-18T17:39:06.207Z,64.76
2022-10-18T17:41:34.792Z,60.96
2022-10-18T17:44:04.365Z,59.57
2022-10-18T17:46:32.466Z,57.63
2022-10-18T17:49:00.580Z,58.49
2022-10-18T17:51:28.607Z,58.26
2022-10-18T17:53:56.892Z,58.48
2022-10-18T17:56:28.082Z,59.24
2022-10-18T17:58:56.199Z,59.71
2022-10-18T18:01:24.169Z,60.99
2022-10-18T18:03:59.632Z,61.04
2022-10-18T18:06:35.577Z,61.10
2022-10-18T18:09:14.491Z,62.58
2022-10-18T18:11:44.098Z,64.56
2022-10-18T18:14:12.072Z,63.46
2022-10-18T18:16:41.881Z,60.59
2022-10-18T18:19:10.225Z,58.43
2022-10-18T18:21:39.660Z,58.66
2022-10-18T18:24:08.037Z,59.50
2022-10-18T18:26:38.232Z,59.48
2022-10-18T18:29:06.331Z,60.18
2022-10-18T18:31:39.926Z,61.09
2022-10-18T18:34:10.011Z,61.69
2022-10-18T18:36:38.323Z,61.41
2022-10-18T18:39:06.493Z,63.29
2022-10-18T18:41:35.076Z,64.32
2022-10-18T18:44:05.395Z,63.07
2022-10-18T18:46:37.383Z,60.84
2022-10-18T18:49:07.074Z,59.70
2022-10-18T18:51:38.231Z,56.49
2022-10-18T18:54:10.485Z,56.60
2022-10-18T18:56:38.655Z,56.97
2022-10-18T18:59:07.238Z,58.78
2022-10-18T19:01:37.130Z,58.98
2022-10-18T19:04:06.450Z,59.42
2022-10-18T19:06:37.273Z,60.44
2022-10-18T19:09:07.948Z,62.53
2022-10-18T19:11:38.154Z,64.06
2022-10-18T19:14:08.494Z,61.12
2022-10-18T19:16:37.251Z,61.42
2022-10-18T19:19:18.061Z,59.37
2022-10-18T19:21:51.903Z,57.01
2022-10-18T19:24:20.922Z,58.61
2022-10-18T19:26:51.752Z,59.53
2022-10-18T19:29:30.577Z,60.35
2022-10-18T19:32:01.032Z,61.23
2022-10-18T19:34:29.583Z,61.33
2022-10-18T19:36:57.654Z,63.19
2022-10-18T19:39:28.644Z,62.22
2022-10-18T19:41:58.532Z,61.88
2022-10-18T19:44:29.221Z,59.46
2022-10-18T19:46:57.107Z,58.36
2022-10-18T19:49:24.977Z,59.25
2022-10-18T19:51:53.148Z,59.78
2022-10-18T19:54:21.218Z,60.71
2022-10-18T19:56:48.976Z,62.65
2022-10-18T19:59:16.843Z,63.94
2022-10-18T20:01:45.153Z,63.51
2022-10-18T20:04:13.195Z,61.49
2022-10-18T20:06:41.976Z,59.37
2022-10-18T20:09:13.471Z,59.43
2022-10-18T20:11:44.058Z,61.08
2022-10-18T20:14:11.846Z,62.13
2022-10-18T20:16:39.604Z,63.56
2022-10-18T20:19:08.299Z,62.32
2022-10-18T20:21:36.461Z,60.99
2022-10-18T20:24:05.770Z,59.34
2022-10-18T20:26:34.673Z,58.79
2022-10-18T20:29:02.778Z,59.38
2022-10-18T20:31:32.515Z,61.24
2022-10-18T20:34:02.740Z,63.13
2022-10-18T20:36:31.630Z,64.02
2022-10-18T20:38:59.797Z,63.35
2022-10-18T20:41:33.892Z,60.02
2022-10-18T20:44:08.055Z,58.85
2022-10-18T20:46:36.916Z,59.48
2022-10-18T20:49:06.316Z,60.79
2022-10-18T20:51:34.690Z,62.36
2022-10-18T20:56:34.461Z,61.58
2022-10-18T20:59:02.999Z,61.37
2022-10-18T21:01:32.707Z,59.40
2022-10-18T21:04:02.331Z,59.11
2022-10-18T21:06:35.667Z,59.85
2022-10-18T21:09:11.766Z,62.29
2022-10-18T21:11:41.391Z,62.95
2022-10-18T21:14:17.829Z,61.91
2022-10-18T21:16:45.999Z,59.02
2022-10-18T21:19:19.307Z,59.54
2022-10-18T21:21:50.369Z,60.49
2022-10-18T21:24:19.442Z,60.84
2022-10-18T21:26:48.006Z,63.33
2022-10-18T21:29:21.592Z,63.81
2022-10-18T21:31:51.880Z,62.26
2022-10-18T21:34:19.710Z,60.94
2022-10-18T21:36:47.889Z,59.95
2022-10-18T21:39:18.776Z,58.83
2022-10-18T21:41:46.783Z,60.10
2022-10-18T21:44:15.065Z,62.78
2022-10-18T21:46:47.025Z,62.53
2022-10-18T21:49:15.611Z,60.81
2022-10-18T21:51:43.782Z,60.52
2022-10-18T21:54:14.211Z,62.38
2022-10-18T21:56:42.037Z,63.77
2022-10-18T21:59:12.209Z,64.89
2022-10-18T22:01:40.266Z,64.89
2022-10-18T22:04:17.457Z,64.88
2022-10-18T22:06:45.314Z,65.24
2022-10-18T22:09:13.184Z,64.98
2022-10-18T22:11:47.326Z,64.97
2022-10-18T22:14:15.064Z,64.90
2022-10-18T22:16:43.022Z,65.39
2022-10-18T22:19:10.888Z,64.99
2022-10-18T22:21:38.623Z,64.59
2022-10-18T22:24:08.772Z,64.33
2022-10-18T22:26:39.142Z,64.38
2022-10-18T22:29:17.620Z,64.11
2022-10-18T22:31:48.449Z,65.08
2022-10-18T22:34:19.010Z,64.43
2022-10-18T22:36:46.939Z,63.90
2022-10-18T22:39:15.422Z,63.07
2022-10-18T22:41:43.497Z,62.79
2022-10-18T22:44:12.619Z,62.76
2022-10-18T22:46:41.377Z,62.76
2022-10-18T22:49:09.240Z,62.79
2022-10-18T22:51:37.020Z,62.10
2022-10-18T22:54:04.867Z,61.42
2022-10-18T22:56:32.631Z,61.32
2022-10-18T22:59:00.466Z,61.45
2022-10-18T23:01:28.325Z,61.57
2022-10-18T23:03:59.068Z,61.94
2022-10-18T23:06:32.695Z,62.52
2022-10-18T23:09:02.975Z,62.18
2022-10-18T23:11:31.149Z,62.26
2022-10-18T23:13:59.018Z,62.26
2022-10-18T23:16:27.335Z,62.16
2022-10-18T23:18:56.734Z,62.21
2022-10-18T23:21:26.638Z,62.02
2022-10-18T23:23:54.596Z,61.85
2022-10-18T23:26:24.712Z,61.85
2022-10-18T23:28:53.111Z,62.29
2022-10-18T23:31:24.454Z,62.43
2022-10-18T23:33:54.068Z,62.65
2022-10-18T23:36:22.176Z,63.42
2022-10-18T23:38:50.141Z,63.73
2022-10-18T23:41:18.122Z,64.79
2022-10-18T23:43:46.160Z,63.13
2022-10-18T23:46:14.822Z,63.13
2022-10-18T23:48:42.694Z,63.04
2022-10-18T23:51:10.971Z,63.83
2022-10-18T23:53:38.844Z,63.46
2022-10-18T23:56:09.512Z,63.49
2022-10-18T23:58:37.544Z,63.35
